SDM3235 UNKL-UNNT
Flight info
| Callsign | SDM3235 |
|---|---|
| Flight time | 0h 58m |
| Altitude | 38000 |
| Route | APRUS2F APRUS B926 KESED/K0841F400 B926 NATIR NATIR1K |
| Aircraft | B738/M-SDE2E3FGHIRWXY/LB1 |
Departure
| Time | 2026-04-27 14:43 |
|---|---|
| Airport | Krasnoyarsk International Airport (UNKL) |
Arrival
| Time | 2026-04-27 15:41 |
|---|---|
| Airport | Novosibirsk Tolmachevo Airport (UNNT) |
| Time | Latitude | Longitude | Altitude | Speed | Heading |
|---|---|---|---|---|---|
| 2026-04-27 14:09 | 55.01023 | 82.67052 | 356 ft | 0 kts | 171° |
| 2026-04-27 14:10 | 56.17938 | 92.48528 | 909 ft | 0 kts | 22° |
| 2026-04-27 14:30 | 56.17933 | 92.48524 | 908 ft | 2 kts | 22° |
| 2026-04-27 14:30 | 56.17919 | 92.48514 | 908 ft | 2 kts | 28° |
| 2026-04-27 14:31 | 56.17907 | 92.48498 | 908 ft | 2 kts | 44° |
| 2026-04-27 14:31 | 56.17898 | 92.48477 | 908 ft | 2 kts | 58° |
| 2026-04-27 14:31 | 56.17892 | 92.48453 | 909 ft | 2 kts | 72° |
| 2026-04-27 14:31 | 56.17889 | 92.48428 | 909 ft | 2 kts | 86° |
| 2026-04-27 14:32 | 56.17889 | 92.48402 | 910 ft | 2 kts | 99° |
| 2026-04-27 14:32 | 56.17892 | 92.48381 | 910 ft | 0 kts | 110° |
| 2026-04-27 14:32 | 56.17894 | 92.48371 | 910 ft | 0 kts | 112° |
| 2026-04-27 14:35 | 56.17894 | 92.48372 | 910 ft | 0 kts | 112° |
| 2026-04-27 14:35 | 56.17865 | 92.48448 | 908 ft | 12 kts | 152° |
| 2026-04-27 14:36 | 56.17783 | 92.48413 | 908 ft | 12 kts | 203° |
| 2026-04-27 14:36 | 56.17733 | 92.48441 | 906 ft | 5 kts | 108° |
| 2026-04-27 14:36 | 56.17709 | 92.48525 | 905 ft | 12 kts | 113° |
| 2026-04-27 14:36 | 56.17651 | 92.48768 | 893 ft | 27 kts | 112° |
| 2026-04-27 14:37 | 56.17577 | 92.49080 | 904 ft | 22 kts | 112° |
| 2026-04-27 14:37 | 56.17520 | 92.49321 | 907 ft | 17 kts | 112° |
| 2026-04-27 14:37 | 56.17474 | 92.49515 | 892 ft | 18 kts | 112° |
| 2026-04-27 14:37 | 56.17445 | 92.49637 | 906 ft | 3 kts | 113° |
| 2026-04-27 14:38 | 56.17431 | 92.49696 | 908 ft | 10 kts | 113° |
| 2026-04-27 14:38 | 56.17381 | 92.49907 | 892 ft | 21 kts | 113° |
| 2026-04-27 14:38 | 56.17330 | 92.50118 | 901 ft | 15 kts | 113° |
| 2026-04-27 14:38 | 56.17280 | 92.50327 | 917 ft | 18 kts | 112° |
| 2026-04-27 14:39 | 56.17244 | 92.50476 | 927 ft | 13 kts | 112° |
| 2026-04-27 14:39 | 56.17188 | 92.50712 | 923 ft | 24 kts | 112° |
| 2026-04-27 14:39 | 56.17121 | 92.50994 | 923 ft | 24 kts | 113° |
| 2026-04-27 14:39 | 56.17056 | 92.51265 | 926 ft | 23 kts | 112° |
| 2026-04-27 14:40 | 56.17002 | 92.51492 | 934 ft | 18 kts | 112° |
| 2026-04-27 14:40 | 56.16952 | 92.51704 | 934 ft | 19 kts | 112° |
| 2026-04-27 14:40 | 56.16904 | 92.51904 | 930 ft | 19 kts | 112° |
| 2026-04-27 14:40 | 56.16844 | 92.52017 | 921 ft | 10 kts | 171° |
| 2026-04-27 14:41 | 56.16819 | 92.52024 | 924 ft | 0 kts | 171° |
| 2026-04-27 14:41 | 56.16803 | 92.52029 | 926 ft | 2 kts | 172° |
| 2026-04-27 14:41 | 56.16806 | 92.52028 | 926 ft | 1 kts | 172° |
| 2026-04-27 14:41 | 56.16774 | 92.52035 | 930 ft | 7 kts | 173° |
| 2026-04-27 14:42 | 56.16736 | 92.52043 | 932 ft | 9 kts | 173° |
| 2026-04-27 14:42 | 56.16660 | 92.52013 | 933 ft | 11 kts | 253° |
| 2026-04-27 14:42 | 56.16672 | 92.51929 | 933 ft | 0 kts | 292° |
| 2026-04-27 14:42 | 56.16687 | 92.51869 | 933 ft | 32 kts | 292° |
| 2026-04-27 14:43 | 56.16900 | 92.50971 | 929 ft | 121 kts | 293° |
| 2026-04-27 14:43 | 56.17316 | 92.49220 | 1149 ft | 172 kts | 291° |
| 2026-04-27 14:43 | 56.17738 | 92.47327 | 2102 ft | 156 kts | 294° |
| 2026-04-27 14:43 | 56.18153 | 92.45612 | 2609 ft | 160 kts | 294° |
| 2026-04-27 14:44 | 56.18620 | 92.43677 | 3240 ft | 174 kts | 293° |
| 2026-04-27 14:44 | 56.19089 | 92.41658 | 3907 ft | 188 kts | 292° |
| 2026-04-27 14:44 | 56.19602 | 92.39426 | 4639 ft | 200 kts | 293° |
| 2026-04-27 14:44 | 56.20186 | 92.37036 | 5226 ft | 222 kts | 293° |
| 2026-04-27 14:45 | 56.20819 | 92.34431 | 5989 ft | 235 kts | 292° |
| 2026-04-27 14:45 | 56.21376 | 92.31625 | 6533 ft | 248 kts | 283° |
| 2026-04-27 14:45 | 56.21621 | 92.28585 | 7572 ft | 245 kts | 271° |
| 2026-04-27 14:45 | 56.21601 | 92.25800 | 9116 ft | 221 kts | 264° |
| 2026-04-27 14:46 | 56.21186 | 92.23229 | 9984 ft | 224 kts | 242° |
| 2026-04-27 14:46 | 56.20461 | 92.21032 | 11557 ft | 191 kts | 237° |
| 2026-04-27 14:46 | 56.19795 | 92.19087 | 12202 ft | 198 kts | 243° |
| 2026-04-27 14:46 | 56.19194 | 92.16779 | 12789 ft | 209 kts | 250° |
| 2026-04-27 14:47 | 56.18718 | 92.14313 | 13537 ft | 214 kts | 251° |
| 2026-04-27 14:47 | 56.18221 | 92.11695 | 14034 ft | 230 kts | 249° |
| 2026-04-27 14:47 | 56.17658 | 92.08972 | 14612 ft | 242 kts | 248° |
| 2026-04-27 14:47 | 56.17020 | 92.06074 | 15130 ft | 257 kts | 247° |
| 2026-04-27 14:48 | 56.16350 | 92.03080 | 15877 ft | 262 kts | 247° |
| 2026-04-27 14:48 | 56.15013 | 91.97009 | 17487 ft | 267 kts | 246° |
| 2026-04-27 14:48 | 56.14326 | 91.93910 | 18231 ft | 270 kts | 246° |
| 2026-04-27 14:49 | 56.13643 | 91.90819 | 18998 ft | 273 kts | 246° |
| 2026-04-27 14:49 | 56.12946 | 91.87667 | 19759 ft | 275 kts | 246° |
| 2026-04-27 14:49 | 56.12242 | 91.84495 | 20464 ft | 278 kts | 246° |
| 2026-04-27 14:49 | 56.11521 | 91.81256 | 21162 ft | 281 kts | 245° |
| 2026-04-27 14:50 | 56.10806 | 91.78039 | 21849 ft | 284 kts | 245° |
| 2026-04-27 14:50 | 56.10072 | 91.74744 | 22484 ft | 287 kts | 245° |
| 2026-04-27 14:50 | 56.09332 | 91.71431 | 23184 ft | 288 kts | 244° |
| 2026-04-27 14:50 | 56.08588 | 91.68102 | 23788 ft | 291 kts | 244° |
| 2026-04-27 14:51 | 56.07838 | 91.64751 | 24371 ft | 295 kts | 244° |
| 2026-04-27 14:51 | 56.07072 | 91.61330 | 24985 ft | 297 kts | 244° |
| 2026-04-27 14:51 | 56.06309 | 91.57935 | 25541 ft | 299 kts | 245° |
| 2026-04-27 14:51 | 56.05797 | 91.55654 | 25999 ft | 299 kts | 245° |
| 2026-04-27 14:52 | 56.04750 | 91.51006 | 26186 ft | 310 kts | 245° |
| 2026-04-27 14:52 | 56.03927 | 91.47363 | 26184 ft | 315 kts | 245° |
| 2026-04-27 14:52 | 56.03115 | 91.43755 | 26186 ft | 315 kts | 245° |
| 2026-04-27 14:52 | 56.02292 | 91.40104 | 26185 ft | 314 kts | 245° |
| 2026-04-27 14:53 | 56.01487 | 91.36539 | 26185 ft | 313 kts | 245° |
| 2026-04-27 14:53 | 56.00666 | 91.32916 | 26187 ft | 314 kts | 244° |
| 2026-04-27 14:53 | 55.99836 | 91.29264 | 26214 ft | 318 kts | 244° |
| 2026-04-27 14:53 | 55.98991 | 91.25635 | 26770 ft | 320 kts | 244° |
| 2026-04-27 14:54 | 55.98448 | 91.23078 | 27321 ft | 318 kts | 248° |
| 2026-04-27 14:54 | 55.98121 | 91.21133 | 27769 ft | 315 kts | 250° |
| 2026-04-27 14:54 | 55.97744 | 91.18421 | 28358 ft | 312 kts | 252° |
| 2026-04-27 14:54 | 55.97341 | 91.15045 | 28965 ft | 310 kts | 254° |
| 2026-04-27 14:55 | 55.96997 | 91.11947 | 29439 ft | 310 kts | 254° |
| 2026-04-27 14:55 | 55.96585 | 91.08214 | 29977 ft | 309 kts | 254° |
| 2026-04-27 14:55 | 55.95710 | 91.00569 | 30167 ft | 320 kts | 254° |
| 2026-04-27 14:56 | 55.94783 | 90.92718 | 30192 ft | 333 kts | 254° |
| 2026-04-27 14:56 | 55.94295 | 90.88635 | 30188 ft | 344 kts | 254° |
| 2026-04-27 14:56 | 55.93789 | 90.84417 | 30183 ft | 353 kts | 254° |
| 2026-04-27 14:57 | 55.92763 | 90.75864 | 30179 ft | 355 kts | 254° |
| 2026-04-27 14:57 | 55.91727 | 90.67257 | 30178 ft | 354 kts | 254° |
| 2026-04-27 14:58 | 55.90691 | 90.58736 | 30181 ft | 356 kts | 254° |
| 2026-04-27 14:58 | 55.89635 | 90.50106 | 30186 ft | 355 kts | 254° |
| 2026-04-27 14:59 | 55.88581 | 90.41553 | 30181 ft | 354 kts | 254° |
| 2026-04-27 14:59 | 55.87522 | 90.33007 | 30171 ft | 355 kts | 253° |
| 2026-04-27 15:00 | 55.86459 | 90.24482 | 30167 ft | 354 kts | 253° |
| 2026-04-27 15:00 | 55.85930 | 90.20259 | 29979 ft | 349 kts | 253° |
| 2026-04-27 15:00 | 55.85400 | 90.16026 | 29232 ft | 352 kts | 253° |
| 2026-04-27 15:01 | 55.84865 | 90.11796 | 28373 ft | 356 kts | 253° |
| 2026-04-27 15:01 | 55.84321 | 90.07507 | 27471 ft | 361 kts | 253° |
| 2026-04-27 15:01 | 55.83769 | 90.03165 | 26651 ft | 363 kts | 253° |
| 2026-04-27 15:01 | 55.83213 | 89.98808 | 25795 ft | 365 kts | 253° |
| 2026-04-27 15:02 | 55.82655 | 89.94440 | 24972 ft | 366 kts | 253° |
| 2026-04-27 15:02 | 55.82101 | 89.90092 | 24564 ft | 356 kts | 253° |
| 2026-04-27 15:02 | 55.81567 | 89.85887 | 24299 ft | 344 kts | 253° |
| 2026-04-27 15:02 | 55.81049 | 89.81827 | 24189 ft | 334 kts | 253° |
| 2026-04-27 15:03 | 55.80525 | 89.77763 | 24198 ft | 337 kts | 252° |
| 2026-04-27 15:03 | 55.79997 | 89.73709 | 24195 ft | 339 kts | 252° |
| 2026-04-27 15:03 | 55.79469 | 89.69673 | 24200 ft | 339 kts | 252° |
| 2026-04-27 15:03 | 55.78941 | 89.65622 | 24197 ft | 338 kts | 252° |
| 2026-04-27 15:04 | 55.78413 | 89.61581 | 24196 ft | 337 kts | 252° |
| 2026-04-27 15:04 | 55.77880 | 89.57511 | 24202 ft | 338 kts | 253° |
| 2026-04-27 15:04 | 55.77352 | 89.53490 | 24201 ft | 337 kts | 252° |
| 2026-04-27 15:04 | 55.76817 | 89.49421 | 24200 ft | 336 kts | 252° |
| 2026-04-27 15:05 | 55.76291 | 89.45432 | 24200 ft | 337 kts | 252° |
| 2026-04-27 15:05 | 55.75753 | 89.41372 | 24210 ft | 338 kts | 253° |
| 2026-04-27 15:05 | 55.75214 | 89.37316 | 24208 ft | 337 kts | 252° |
| 2026-04-27 15:05 | 55.74676 | 89.33278 | 24208 ft | 336 kts | 252° |
| 2026-04-27 15:06 | 55.74140 | 89.29263 | 24212 ft | 337 kts | 252° |
| 2026-04-27 15:06 | 55.73605 | 89.25266 | 24205 ft | 335 kts | 252° |
| 2026-04-27 15:06 | 55.73066 | 89.21249 | 24211 ft | 336 kts | 252° |
| 2026-04-27 15:06 | 55.72523 | 89.17214 | 24212 ft | 336 kts | 252° |
| 2026-04-27 15:07 | 55.71983 | 89.13211 | 24209 ft | 337 kts | 252° |
| 2026-04-27 15:07 | 55.71440 | 89.09193 | 24194 ft | 338 kts | 252° |
| 2026-04-27 15:07 | 55.70890 | 89.05140 | 24199 ft | 339 kts | 252° |
| 2026-04-27 15:07 | 55.70344 | 89.01122 | 24193 ft | 335 kts | 252° |
| 2026-04-27 15:08 | 55.69796 | 88.97102 | 24190 ft | 336 kts | 252° |
| 2026-04-27 15:08 | 55.69249 | 88.93088 | 24197 ft | 337 kts | 252° |
| 2026-04-27 15:08 | 55.68702 | 88.89078 | 24186 ft | 334 kts | 252° |
| 2026-04-27 15:08 | 55.68158 | 88.85093 | 24192 ft | 336 kts | 252° |
| 2026-04-27 15:09 | 55.67608 | 88.81075 | 24202 ft | 336 kts | 252° |
| 2026-04-27 15:09 | 55.67062 | 88.77098 | 24200 ft | 336 kts | 252° |
| 2026-04-27 15:09 | 55.66510 | 88.73076 | 24202 ft | 336 kts | 252° |
| 2026-04-27 15:09 | 55.65952 | 88.69029 | 24203 ft | 336 kts | 252° |
| 2026-04-27 15:10 | 55.65404 | 88.65066 | 24203 ft | 337 kts | 252° |
| 2026-04-27 15:10 | 55.64845 | 88.61033 | 24196 ft | 336 kts | 252° |
| 2026-04-27 15:10 | 55.64290 | 88.57041 | 24199 ft | 336 kts | 252° |
| 2026-04-27 15:10 | 55.63735 | 88.53065 | 24198 ft | 336 kts | 252° |
| 2026-04-27 15:11 | 55.63170 | 88.49023 | 24194 ft | 336 kts | 252° |
| 2026-04-27 15:11 | 55.62611 | 88.45037 | 24197 ft | 336 kts | 252° |
| 2026-04-27 15:11 | 55.62049 | 88.41042 | 24199 ft | 337 kts | 252° |
| 2026-04-27 15:11 | 55.61475 | 88.36976 | 24202 ft | 338 kts | 252° |
| 2026-04-27 15:12 | 55.60909 | 88.32971 | 24196 ft | 337 kts | 251° |
| 2026-04-27 15:12 | 55.60348 | 88.29009 | 24199 ft | 336 kts | 252° |
| 2026-04-27 15:12 | 55.59776 | 88.24982 | 24189 ft | 336 kts | 251° |
| 2026-04-27 15:12 | 55.59214 | 88.21035 | 24195 ft | 336 kts | 252° |
| 2026-04-27 15:13 | 55.58641 | 88.17014 | 24194 ft | 335 kts | 251° |
| 2026-04-27 15:13 | 55.58072 | 88.13040 | 24193 ft | 336 kts | 252° |
| 2026-04-27 15:13 | 55.57500 | 88.09059 | 24189 ft | 335 kts | 252° |
| 2026-04-27 15:13 | 55.56923 | 88.05049 | 24189 ft | 336 kts | 252° |
| 2026-04-27 15:14 | 55.56342 | 88.01037 | 24203 ft | 338 kts | 252° |
| 2026-04-27 15:14 | 55.55763 | 87.97034 | 24199 ft | 336 kts | 252° |
| 2026-04-27 15:14 | 55.55188 | 87.93057 | 24190 ft | 335 kts | 252° |
| 2026-04-27 15:14 | 55.54610 | 87.89087 | 24195 ft | 338 kts | 251° |
| 2026-04-27 15:15 | 55.54025 | 87.85077 | 24192 ft | 336 kts | 252° |
| 2026-04-27 15:15 | 55.53447 | 87.81117 | 24196 ft | 337 kts | 252° |
| 2026-04-27 15:15 | 55.52859 | 87.77096 | 24193 ft | 338 kts | 252° |
| 2026-04-27 15:15 | 55.52273 | 87.73104 | 24190 ft | 337 kts | 252° |
| 2026-04-27 15:16 | 55.51683 | 87.69087 | 24194 ft | 337 kts | 252° |
| 2026-04-27 15:16 | 55.50402 | 87.60422 | 24191 ft | 337 kts | 252° |
| 2026-04-27 15:16 | 55.48041 | 87.44577 | 24210 ft | 339 kts | 252° |
| 2026-04-27 15:16 | 55.45879 | 87.30283 | 24203 ft | 340 kts | 251° |
| 2026-04-27 15:17 | 55.45280 | 87.26251 | 24187 ft | 341 kts | 253° |
| 2026-04-27 15:17 | 55.44821 | 87.22200 | 24187 ft | 342 kts | 256° |
| 2026-04-27 15:17 | 55.44149 | 87.14422 | 24195 ft | 343 kts | 257° |
| 2026-04-27 15:17 | 55.42770 | 86.97741 | 24190 ft | 344 kts | 257° |
| 2026-04-27 15:18 | 55.41292 | 86.81056 | 24191 ft | 344 kts | 257° |
| 2026-04-27 15:18 | 55.39719 | 86.64682 | 24197 ft | 343 kts | 256° |
| 2026-04-27 15:18 | 55.38087 | 86.48127 | 24193 ft | 342 kts | 257° |
| 2026-04-27 15:18 | 55.36491 | 86.31691 | 24187 ft | 343 kts | 257° |
| 2026-04-27 15:19 | 55.34909 | 86.15240 | 24189 ft | 342 kts | 257° |
| 2026-04-27 15:19 | 55.33305 | 85.98837 | 24203 ft | 343 kts | 257° |
| 2026-04-27 15:19 | 55.31637 | 85.82317 | 24202 ft | 343 kts | 257° |
| 2026-04-27 15:19 | 55.29946 | 85.65929 | 24207 ft | 343 kts | 256° |
| 2026-04-27 15:20 | 55.28231 | 85.49461 | 24210 ft | 345 kts | 257° |
| 2026-04-27 15:20 | 55.26510 | 85.33034 | 24208 ft | 345 kts | 256° |
| 2026-04-27 15:20 | 55.24752 | 85.16440 | 24217 ft | 345 kts | 256° |
| 2026-04-27 15:20 | 55.22975 | 84.99976 | 24224 ft | 344 kts | 256° |
| 2026-04-27 15:21 | 55.21460 | 84.86140 | 24213 ft | 345 kts | 256° |
| 2026-04-27 15:21 | 55.21001 | 84.81983 | 24224 ft | 345 kts | 256° |
| 2026-04-27 15:21 | 55.20551 | 84.77904 | 24213 ft | 337 kts | 256° |
| 2026-04-27 15:21 | 55.20130 | 84.74075 | 24205 ft | 311 kts | 256° |
| 2026-04-27 15:22 | 55.19729 | 84.70408 | 24237 ft | 308 kts | 256° |
| 2026-04-27 15:22 | 55.19256 | 84.66772 | 24216 ft | 309 kts | 252° |
| 2026-04-27 15:22 | 55.18642 | 84.63138 | 24212 ft | 308 kts | 251° |
| 2026-04-27 15:22 | 55.17994 | 84.59596 | 24215 ft | 309 kts | 250° |
| 2026-04-27 15:23 | 55.17337 | 84.56018 | 24000 ft | 312 kts | 251° |
| 2026-04-27 15:23 | 55.16686 | 84.52406 | 23272 ft | 311 kts | 251° |
| 2026-04-27 15:23 | 55.16056 | 84.48838 | 22538 ft | 304 kts | 252° |
| 2026-04-27 15:23 | 55.15452 | 84.45381 | 21813 ft | 300 kts | 252° |
| 2026-04-27 15:24 | 55.14851 | 84.41935 | 20941 ft | 301 kts | 252° |
| 2026-04-27 15:24 | 55.14247 | 84.38470 | 20028 ft | 299 kts | 253° |
| 2026-04-27 15:24 | 55.13649 | 84.35041 | 19127 ft | 297 kts | 253° |
| 2026-04-27 15:24 | 55.13054 | 84.31634 | 18236 ft | 296 kts | 252° |
| 2026-04-27 15:25 | 55.12456 | 84.28218 | 17343 ft | 295 kts | 253° |
| 2026-04-27 15:25 | 55.11860 | 84.24812 | 16448 ft | 293 kts | 253° |
| 2026-04-27 15:25 | 55.11270 | 84.21452 | 15556 ft | 292 kts | 253° |
| 2026-04-27 15:25 | 55.10683 | 84.18115 | 14666 ft | 291 kts | 253° |
| 2026-04-27 15:26 | 55.10093 | 84.14770 | 13823 ft | 289 kts | 254° |
| 2026-04-27 15:26 | 55.09513 | 84.11484 | 13321 ft | 276 kts | 254° |
| 2026-04-27 15:26 | 55.08961 | 84.08365 | 12736 ft | 270 kts | 254° |
| 2026-04-27 15:26 | 55.08411 | 84.05260 | 12034 ft | 268 kts | 254° |
| 2026-04-27 15:27 | 55.07940 | 84.02145 | 11326 ft | 267 kts | 261° |
| 2026-04-27 15:27 | 55.07686 | 83.98996 | 10659 ft | 264 kts | 265° |
| 2026-04-27 15:27 | 55.07517 | 83.95838 | 9980 ft | 263 kts | 266° |
| 2026-04-27 15:27 | 55.07358 | 83.92712 | 9353 ft | 260 kts | 266° |
| 2026-04-27 15:28 | 55.07184 | 83.89589 | 8686 ft | 259 kts | 266° |
| 2026-04-27 15:28 | 55.07000 | 83.86503 | 8030 ft | 258 kts | 265° |
| 2026-04-27 15:28 | 55.06809 | 83.83414 | 7415 ft | 255 kts | 265° |
| 2026-04-27 15:28 | 55.06619 | 83.80381 | 7232 ft | 252 kts | 265° |
| 2026-04-27 15:29 | 55.06426 | 83.77302 | 7239 ft | 256 kts | 265° |
| 2026-04-27 15:29 | 55.06235 | 83.74265 | 7239 ft | 256 kts | 265° |
| 2026-04-27 15:29 | 55.06040 | 83.71158 | 7241 ft | 256 kts | 265° |
| 2026-04-27 15:29 | 55.05844 | 83.68063 | 7243 ft | 257 kts | 265° |
| 2026-04-27 15:30 | 55.05649 | 83.65002 | 7240 ft | 257 kts | 265° |
| 2026-04-27 15:30 | 55.05452 | 83.61902 | 7240 ft | 256 kts | 266° |
| 2026-04-27 15:30 | 55.05255 | 83.58806 | 7241 ft | 256 kts | 265° |
| 2026-04-27 15:30 | 55.05062 | 83.55764 | 7242 ft | 255 kts | 265° |
| 2026-04-27 15:31 | 55.04864 | 83.52676 | 7241 ft | 256 kts | 265° |
| 2026-04-27 15:31 | 55.04662 | 83.49569 | 7259 ft | 257 kts | 266° |
| 2026-04-27 15:31 | 55.04464 | 83.46485 | 7238 ft | 255 kts | 266° |
| 2026-04-27 15:31 | 55.04269 | 83.43456 | 7243 ft | 255 kts | 266° |
| 2026-04-27 15:32 | 55.04068 | 83.40385 | 7242 ft | 253 kts | 266° |
| 2026-04-27 15:32 | 55.03868 | 83.37364 | 7243 ft | 248 kts | 266° |
| 2026-04-27 15:32 | 55.03670 | 83.34390 | 7243 ft | 249 kts | 265° |
| 2026-04-27 15:32 | 55.03547 | 83.31387 | 7246 ft | 248 kts | 269° |
| 2026-04-27 15:33 | 55.03518 | 83.28404 | 7144 ft | 244 kts | 271° |
| 2026-04-27 15:33 | 55.03523 | 83.25485 | 6760 ft | 245 kts | 271° |
| 2026-04-27 15:33 | 55.03527 | 83.22525 | 6384 ft | 245 kts | 271° |
| 2026-04-27 15:33 | 55.03520 | 83.19622 | 6263 ft | 235 kts | 271° |
| 2026-04-27 15:34 | 55.03505 | 83.16750 | 5818 ft | 240 kts | 271° |
| 2026-04-27 15:34 | 55.03488 | 83.13827 | 5399 ft | 242 kts | 271° |
| 2026-04-27 15:34 | 55.03468 | 83.10895 | 5038 ft | 242 kts | 271° |
| 2026-04-27 15:34 | 55.03448 | 83.08021 | 5005 ft | 240 kts | 271° |
| 2026-04-27 15:35 | 55.03426 | 83.05108 | 4995 ft | 234 kts | 271° |
| 2026-04-27 15:35 | 55.03404 | 83.02373 | 4971 ft | 221 kts | 271° |
| 2026-04-27 15:35 | 55.03383 | 82.99766 | 4886 ft | 212 kts | 271° |
| 2026-04-27 15:35 | 55.03366 | 82.97232 | 4797 ft | 203 kts | 271° |
| 2026-04-27 15:36 | 55.03347 | 82.94836 | 4705 ft | 192 kts | 271° |
| 2026-04-27 15:36 | 55.03329 | 82.92571 | 4515 ft | 186 kts | 272° |
| 2026-04-27 15:36 | 55.03312 | 82.90266 | 3997 ft | 197 kts | 271° |
| 2026-04-27 15:36 | 55.03291 | 82.87828 | 3407 ft | 206 kts | 269° |
| 2026-04-27 15:37 | 55.03142 | 82.85345 | 2830 ft | 212 kts | 264° |
| 2026-04-27 15:37 | 55.02902 | 82.82814 | 2253 ft | 216 kts | 262° |
| 2026-04-27 15:37 | 55.02641 | 82.80290 | 1949 ft | 204 kts | 262° |
| 2026-04-27 15:37 | 55.02418 | 82.77961 | 1627 ft | 185 kts | 265° |
| 2026-04-27 15:38 | 55.02266 | 82.75792 | 1578 ft | 179 kts | 265° |
| 2026-04-27 15:38 | 55.02091 | 82.73638 | 1552 ft | 180 kts | 263° |
| 2026-04-27 15:38 | 55.01858 | 82.71524 | 1065 ft | 178 kts | 261° |
| 2026-04-27 15:38 | 55.01651 | 82.69540 | 931 ft | 153 kts | 263° |
| 2026-04-27 15:39 | 55.01450 | 82.67805 | 1365 ft | 135 kts | 262° |
| 2026-04-27 15:39 | 55.01263 | 82.66482 | 2171 ft | 115 kts | 257° |
| 2026-04-27 15:39 | 55.02313 | 82.78485 | 2375 ft | 140 kts | 266° |
| 2026-04-27 15:39 | 55.02278 | 82.76994 | 1417 ft | 109 kts | 274° |
| 2026-04-27 15:40 | 55.02270 | 82.75571 | 1029 ft | 130 kts | 262° |
| 2026-04-27 15:40 | 55.02002 | 82.74054 | 1501 ft | 128 kts | 256° |
| 2026-04-27 15:40 | 55.01862 | 82.72478 | 943 ft | 136 kts | 268° |
| 2026-04-27 15:40 | 55.01756 | 82.70891 | 726 ft | 129 kts | 263° |
| 2026-04-27 15:41 | 55.01623 | 82.69352 | 587 ft | 127 kts | 265° |
| 2026-04-27 15:41 | 55.01495 | 82.67820 | 406 ft | 130 kts | 263° |
| 2026-04-27 15:41 | 55.01377 | 82.66404 | 353 ft | 94 kts | 261° |
| 2026-04-27 15:41 | 55.01304 | 82.65655 | 354 ft | 34 kts | 258° |
| 2026-04-27 15:42 | 55.01261 | 82.65215 | 353 ft | 37 kts | 260° |
| 2026-04-27 15:42 | 55.01179 | 82.65062 | 353 ft | 16 kts | 172° |
| 2026-04-27 15:42 | 55.01065 | 82.65088 | 353 ft | 16 kts | 172° |
| 2026-04-27 15:42 | 55.00951 | 82.65116 | 353 ft | 16 kts | 173° |
| 2026-04-27 15:43 | 55.00883 | 82.65184 | 353 ft | 10 kts | 96° |
| 2026-04-27 15:43 | 55.00885 | 82.65314 | 355 ft | 11 kts | 83° |
| 2026-04-27 15:43 | 55.00909 | 82.65572 | 357 ft | 36 kts | 81° |
| 2026-04-27 15:43 | 55.00954 | 82.66057 | 357 ft | 41 kts | 81° |
| 2026-04-27 15:44 | 55.01023 | 82.66376 | 357 ft | 24 kts | 71° |
| 2026-04-27 15:44 | 55.01084 | 82.66657 | 355 ft | 25 kts | 69° |
| 2026-04-27 15:44 | 55.01077 | 82.66911 | 357 ft | 17 kts | 108° |
| 2026-04-27 15:44 | 55.01067 | 82.67033 | 357 ft | 0 kts | 167° |
| 2026-04-27 15:45 | 55.01045 | 82.67044 | 357 ft | 7 kts | 164° |
| 2026-04-27 15:45 | 55.01024 | 82.67052 | 357 ft | 0 kts | 171° |
| 2026-04-27 15:45 | 55.01022 | 82.67052 | 357 ft | 0 kts | 171° |